sensor_id;sensor_type;location;lat;lon;timestamp;pressure;altitude;pressure_sealevel;temperature;humidity
44481;BME280;30184;42.018;23.670;2023-03-21T00:00:41;91451.50;;;7.94;62.45
44481;BME280;30184;42.018;23.670;2023-03-21T00:03:10;91362.75;;;7.33;62.43
44481;BME280;30184;42.018;23.670;2023-03-21T00:05:39;91450.34;;;7.95;61.77
44481;BME280;30184;42.018;23.670;2023-03-21T00:08:09;91440.69;;;7.94;60.15
44481;BME280;30184;42.018;23.670;2023-03-21T00:10:38;91440.00;;;7.90;59.80
44481;BME280;30184;42.018;23.670;2023-03-21T00:13:09;91455.59;;;7.82;60.20
44481;BME280;30184;42.018;23.670;2023-03-21T00:15:40;91486.50;;;7.58;60.55
44481;BME280;30184;42.018;23.670;2023-03-21T00:18:30;91415.06;;;7.82;60.87
44481;BME280;30184;42.018;23.670;2023-03-21T00:21:01;91421.44;;;7.92;61.94
44481;BME280;30184;42.018;23.670;2023-03-21T00:23:50;91282.94;;;6.93;63.79
44481;BME280;30184;42.018;23.670;2023-03-21T00:26:20;91411.03;;;7.91;65.13
44481;BME280;30184;42.018;23.670;2023-03-21T00:28:50;91399.81;;;7.72;64.66
44481;BME280;30184;42.018;23.670;2023-03-21T00:31:20;91399.88;;;7.88;64.35
44481;BME280;30184;42.018;23.670;2023-03-21T00:33:49;91397.19;;;7.88;62.58
44481;BME280;30184;42.018;23.670;2023-03-21T00:36:18;91391.44;;;7.86;62.17
44481;BME280;30184;42.018;23.670;2023-03-21T00:38:48;91379.88;;;7.86;61.60
44481;BME280;30184;42.018;23.670;2023-03-21T00:41:17;91391.88;;;7.85;61.49
44481;BME280;30184;42.018;23.670;2023-03-21T00:44:06;91406.19;;;7.82;61.39
44481;BME280;30184;42.018;23.670;2023-03-21T00:46:36;91378.50;;;7.78;61.18
44481;BME280;30184;42.018;23.670;2023-03-21T00:49:25;91332.50;;;7.42;62.33
44481;BME280;30184;42.018;23.670;2023-03-21T00:51:54;91380.22;;;7.68;65.16
44481;BME280;30184;42.018;23.670;2023-03-21T00:54:26;91367.47;;;7.49;65.78
44481;BME280;30184;42.018;23.670;2023-03-21T00:56:55;91398.56;;;7.57;65.57
44481;BME280;30184;42.018;23.670;2023-03-21T00:59:26;91339.09;;;7.21;64.96
44481;BME280;30184;42.018;23.670;2023-03-21T01:01:55;91396.78;;;7.51;65.11
44481;BME280;30184;42.018;23.670;2023-03-21T01:04:27;91398.72;;;7.27;66.51
44481;BME280;30184;42.018;23.670;2023-03-21T01:06:56;91345.84;;;7.09;67.67
44481;BME280;30184;42.018;23.670;2023-03-21T01:09:25;91315.84;;;6.84;67.64
44481;BME280;30184;42.018;23.670;2023-03-21T01:11:55;91381.72;;;7.30;67.83
44481;BME280;30184;42.018;23.670;2023-03-21T01:14:26;91373.44;;;7.17;68.12
44481;BME280;30184;42.018;23.670;2023-03-21T01:16:55;91389.59;;;7.21;67.98
44481;BME280;30184;42.018;23.670;2023-03-21T01:19:24;91378.44;;;7.19;67.14
44481;BME280;30184;42.018;23.670;2023-03-21T01:22:10;91377.72;;;7.15;66.72
44481;BME280;30184;42.018;23.670;2023-03-21T01:24:40;91378.56;;;7.11;66.42
44481;BME280;30184;42.018;23.670;2023-03-21T01:27:19;91378.22;;;7.09;66.41
44481;BME280;30184;42.018;23.670;2023-03-21T01:29:50;91390.19;;;7.08;66.45
44481;BME280;30184;42.018;23.670;2023-03-21T01:32:19;91389.06;;;7.06;66.69
44481;BME280;30184;42.018;23.670;2023-03-21T01:34:48;91378.66;;;7.04;67.30
44481;BME280;30184;42.018;23.670;2023-03-21T01:37:21;91384.50;;;7.03;67.26
44481;BME280;30184;42.018;23.670;2023-03-21T01:39:53;91391.84;;;7.02;68.07
44481;BME280;30184;42.018;23.670;2023-03-21T01:42:22;91384.28;;;6.94;69.15
44481;BME280;30184;42.018;23.670;2023-03-21T01:44:54;91382.75;;;6.93;68.21
44481;BME280;30184;42.018;23.670;2023-03-21T01:47:29;91387.78;;;6.91;67.63
44481;BME280;30184;42.018;23.670;2023-03-21T01:50:17;91383.56;;;6.90;67.06
44481;BME280;30184;42.018;23.670;2023-03-21T01:53:00;91378.31;;;6.79;66.71
44481;BME280;30184;42.018;23.670;2023-03-21T01:55:33;91369.13;;;6.77;66.82
44481;BME280;30184;42.018;23.670;2023-03-21T01:58:14;91377.91;;;6.81;66.89
44481;BME280;30184;42.018;23.670;2023-03-21T02:01:25;91401.84;;;6.79;66.90
44481;BME280;30184;42.018;23.670;2023-03-21T02:03:56;91341.34;;;6.56;67.70
44481;BME280;30184;42.018;23.670;2023-03-21T02:06:45;91411.16;;;6.74;69.57
44481;BME280;30184;42.018;23.670;2023-03-21T02:09:38;91376.56;;;6.69;69.94
44481;BME280;30184;42.018;23.670;2023-03-21T02:12:15;91379.66;;;6.67;70.36
44481;BME280;30184;42.018;23.670;2023-03-21T02:14:47;91372.31;;;6.45;70.19
44481;BME280;30184;42.018;23.670;2023-03-21T02:17:43;91380.50;;;6.64;70.37
44481;BME280;30184;42.018;23.670;2023-03-21T02:20:48;91384.34;;;6.63;70.13
44481;BME280;30184;42.018;23.670;2023-03-21T02:26:39;91372.84;;;6.59;69.56
44481;BME280;30184;42.018;23.670;2023-03-21T02:29:50;91375.22;;;6.57;69.02
44481;BME280;30184;42.018;23.670;2023-03-21T02:32:36;91348.97;;;6.34;69.98
44481;BME280;30184;42.018;23.670;2023-03-21T02:35:29;91228.28;;;5.45;69.81
44481;BME280;30184;42.018;23.670;2023-03-21T02:38:15;91376.66;;;6.39;70.00
44481;BME280;30184;42.018;23.670;2023-03-21T02:40:52;91341.94;;;6.17;69.78
44481;BME280;30184;42.018;23.670;2023-03-21T02:43:32;91344.59;;;6.21;69.90
44481;BME280;30184;42.018;23.670;2023-03-21T02:46:09;91364.44;;;6.30;70.53
44481;BME280;30184;42.018;23.670;2023-03-21T02:48:45;91368.38;;;6.26;71.07
44481;BME280;30184;42.018;23.670;2023-03-21T02:51:21;91376.47;;;6.22;71.40
44481;BME280;30184;42.018;23.670;2023-03-21T02:53:56;91347.50;;;6.03;71.53
44481;BME280;30184;42.018;23.670;2023-03-21T02:56:48;91329.69;;;5.82;72.20
44481;BME280;30184;42.018;23.670;2023-03-21T02:59:20;91365.09;;;5.47;72.20
44481;BME280;30184;42.018;23.670;2023-03-21T03:01:51;91361.44;;;5.98;72.43
44481;BME280;30184;42.018;23.670;2023-03-21T03:04:24;91346.19;;;5.84;72.50
44481;BME280;30184;42.018;23.670;2023-03-21T03:07:12;91359.63;;;5.88;72.31
44481;BME280;30184;42.018;23.670;2023-03-21T03:10:04;91363.16;;;5.81;73.07
44481;BME280;30184;42.018;23.670;2023-03-21T03:12:41;91367.13;;;5.73;73.05
44481;BME280;30184;42.018;23.670;2023-03-21T03:15:19;91372.16;;;5.68;73.39
44481;BME280;30184;42.018;23.670;2023-03-21T03:18:01;91340.88;;;5.47;73.43
44481;BME280;30184;42.018;23.670;2023-03-21T03:20:44;91368.84;;;5.56;73.65
44481;BME280;30184;42.018;23.670;2023-03-21T03:23:25;91370.47;;;5.50;73.95
44481;BME280;30184;42.018;23.670;2023-03-21T03:26:01;91367.47;;;5.45;74.22
44481;BME280;30184;42.018;23.670;2023-03-21T03:28:36;91363.63;;;5.42;74.30
44481;BME280;30184;42.018;23.670;2023-03-21T03:31:13;91354.81;;;5.38;74.29
44481;BME280;30184;42.018;23.670;2023-03-21T03:33:54;91354.47;;;5.36;74.28
44481;BME280;30184;42.018;23.670;2023-03-21T03:36:30;91362.28;;;5.27;74.29
44481;BME280;30184;42.018;23.670;2023-03-21T03:39:12;91358.00;;;5.30;74.36
44481;BME280;30184;42.018;23.670;2023-03-21T03:41:51;91352.31;;;5.24;74.79
44481;BME280;30184;42.018;23.670;2023-03-21T03:44:41;91358.13;;;5.19;74.63
44481;BME280;30184;42.018;23.670;2023-03-21T03:47:11;91246.69;;;4.48;74.95
44481;BME280;30184;42.018;23.670;2023-03-21T03:50:03;91354.72;;;5.15;75.10
44481;BME280;30184;42.018;23.670;2023-03-21T03:52:38;91323.81;;;4.93;75.56
44481;BME280;30184;42.018;23.670;2023-03-21T03:55:24;91154.63;;;3.66;75.27
44481;BME280;30184;42.018;23.670;2023-03-21T03:58:03;91350.19;;;5.05;75.62
44481;BME280;30184;42.018;23.670;2023-03-21T04:00:41;91357.50;;;5.04;75.37
44481;BME280;30184;42.018;23.670;2023-03-21T04:03:10;91360.19;;;5.04;75.41
44481;BME280;30184;42.018;23.670;2023-03-21T04:05:39;91359.81;;;5.06;75.42
44481;BME280;30184;42.018;23.670;2023-03-21T04:08:09;91286.59;;;4.50;75.44
44481;BME280;30184;42.018;23.670;2023-03-21T04:10:42;91358.63;;;5.07;75.65
44481;BME280;30184;42.018;23.670;2023-03-21T04:13:14;91372.44;;;5.09;75.89
44481;BME280;30184;42.018;23.670;2023-03-21T04:16:00;91355.13;;;5.10;75.90
44481;BME280;30184;42.018;23.670;2023-03-21T04:18:30;91355.50;;;5.12;75.84
44481;BME280;30184;42.018;23.670;2023-03-21T04:21:00;91351.25;;;5.14;75.67
44481;BME280;30184;42.018;23.670;2023-03-21T04:23:30;91350.84;;;5.16;75.79
44481;BME280;30184;42.018;23.670;2023-03-21T04:25:59;91344.31;;;5.17;75.61
44481;BME280;30184;42.018;23.670;2023-03-21T04:28:36;91341.56;;;5.20;75.82
44481;BME280;30184;42.018;23.670;2023-03-21T04:31:33;91328.56;;;5.15;75.01
44481;BME280;30184;42.018;23.670;2023-03-21T04:34:09;91333.84;;;5.26;75.17
44481;BME280;30184;42.018;23.670;2023-03-21T04:36:43;91289.63;;;4.93;75.32
44481;BME280;30184;42.018;23.670;2023-03-21T04:39:14;91311.69;;;5.15;75.46
44481;BME280;30184;42.018;23.670;2023-03-21T04:41:47;91340.28;;;5.32;75.42
44481;BME280;30184;42.018;23.670;2023-03-21T04:44:17;91339.13;;;5.33;75.55
44481;BME280;30184;42.018;23.670;2023-03-21T04:46:47;91340.66;;;5.34;75.48
44481;BME280;30184;42.018;23.670;2023-03-21T04:49:17;91316.59;;;5.20;75.42
44481;BME280;30184;42.018;23.670;2023-03-21T04:51:46;91324.88;;;5.36;74.84
44481;BME280;30184;42.018;23.670;2023-03-21T04:54:18;91331.75;;;5.41;74.89
44481;BME280;30184;42.018;23.670;2023-03-21T04:56:48;91330.53;;;5.45;75.36
44481;BME280;30184;42.018;23.670;2023-03-21T04:59:20;91337.78;;;5.48;75.46
44481;BME280;30184;42.018;23.670;2023-03-21T05:01:49;91331.63;;;5.51;75.46
44481;BME280;30184;42.018;23.670;2023-03-21T05:04:19;91331.63;;;5.51;75.64
44481;BME280;30184;42.018;23.670;2023-03-21T05:06:48;91328.91;;;5.55;75.56
44481;BME280;30184;42.018;23.670;2023-03-21T05:09:18;91319.19;;;5.61;75.38
44481;BME280;30184;42.018;23.670;2023-03-21T05:11:49;91326.03;;;5.66;75.36
44481;BME280;30184;42.018;23.670;2023-03-21T05:14:22;91331.00;;;5.71;75.28
44481;BME280;30184;42.018;23.670;2023-03-21T05:16:52;91279.75;;;5.47;75.01
44481;BME280;30184;42.018;23.670;2023-03-21T05:19:24;91318.16;;;5.82;74.84
44481;BME280;30184;42.018;23.670;2023-03-21T05:22:03;91319.25;;;5.88;74.89
44481;BME280;30184;42.018;23.670;2023-03-21T05:24:35;91316.44;;;5.95;74.78
44481;BME280;30184;42.018;23.670;2023-03-21T05:27:08;91319.47;;;6.01;74.47
44481;BME280;30184;42.018;23.670;2023-03-21T05:29:46;91319.72;;;6.10;74.56
44481;BME280;30184;42.018;23.670;2023-03-21T05:32:16;91154.38;;;4.96;74.10
44481;BME280;30184;42.018;23.670;2023-03-21T05:34:45;91315.22;;;6.26;74.47
44481;BME280;30184;42.018;23.670;2023-03-21T05:37:14;91273.84;;;6.13;74.21
44481;BME280;30184;42.018;23.670;2023-03-21T05:39:47;91271.53;;;6.15;73.90
44481;BME280;30184;42.018;23.670;2023-03-21T05:42:22;91306.16;;;6.40;73.60
44481;BME280;30184;42.018;23.670;2023-03-21T05:44:53;91279.50;;;6.46;72.74
44481;BME280;30184;42.018;23.670;2023-03-21T05:47:28;91319.31;;;6.85;71.36
44481;BME280;30184;42.018;23.670;2023-03-21T05:49:59;91313.28;;;6.97;70.58
44481;BME280;30184;42.018;23.670;2023-03-21T05:52:30;91309.59;;;7.10;69.38
44481;BME280;30184;42.018;23.670;2023-03-21T05:55:01;91317.13;;;7.19;69.20
44481;BME280;30184;42.018;23.670;2023-03-21T05:57:30;91311.91;;;7.32;69.26
44481;BME280;30184;42.018;23.670;2023-03-21T06:00:07;91291.81;;;7.33;68.35
44481;BME280;30184;42.018;23.670;2023-03-21T06:02:42;91308.09;;;7.49;67.93
44481;BME280;30184;42.018;23.670;2023-03-21T06:05:30;91244.22;;;7.23;67.73
44481;BME280;30184;42.018;23.670;2023-03-21T06:08:00;91238.31;;;7.28;67.16
44481;BME280;30184;42.018;23.670;2023-03-21T06:10:30;91269.72;;;7.58;66.55
44481;BME280;30184;42.018;23.670;2023-03-21T06:13:02;91304.44;;;7.95;66.11
44481;BME280;30184;42.018;23.670;2023-03-21T06:15:35;91306.47;;;8.07;65.50
44481;BME280;30184;42.018;23.670;2023-03-21T06:18:15;91293.47;;;8.18;64.27
44481;BME280;30184;42.018;23.670;2023-03-21T06:20:58;91300.94;;;8.31;63.93
44481;BME280;30184;42.018;23.670;2023-03-21T06:23:27;91294.91;;;8.43;63.14
44481;BME280;30184;42.018;23.670;2023-03-21T06:25:57;91289.97;;;8.54;62.45
44481;BME280;30184;42.018;23.670;2023-03-21T06:28:27;91282.31;;;8.69;61.87
44481;BME280;30184;42.018;23.670;2023-03-21T06:30:57;91280.34;;;8.69;61.67
44481;BME280;30184;42.018;23.670;2023-03-21T06:33:29;91289.28;;;8.98;60.59
44481;BME280;30184;42.018;23.670;2023-03-21T06:35:58;91287.81;;;9.10;60.40
44481;BME280;30184;42.018;23.670;2023-03-21T06:38:28;91284.16;;;9.17;60.16
44481;BME280;30184;42.018;23.670;2023-03-21T06:40:58;91286.25;;;9.25;59.73
44481;BME280;30184;42.018;23.670;2023-03-21T06:43:36;91294.53;;;9.34;59.04
44481;BME280;30184;42.018;23.670;2023-03-21T06:46:07;91300.94;;;9.41;59.10
44481;BME280;30184;42.018;23.670;2023-03-21T06:48:36;91293.28;;;9.52;59.15
44481;BME280;30184;42.018;23.670;2023-03-21T06:51:12;91285.28;;;9.61;59.02
44481;BME280;30184;42.018;23.670;2023-03-21T06:53:53;91284.75;;;9.66;58.72
44481;BME280;30184;42.018;23.670;2023-03-21T06:56:46;91287.28;;;9.73;58.46
44481;BME280;30184;42.018;23.670;2023-03-21T06:59:22;91284.88;;;9.75;58.11
44481;BME280;30184;42.018;23.670;2023-03-21T07:01:59;91281.44;;;9.87;58.32
44481;BME280;30184;42.018;23.670;2023-03-21T07:04:32;91285.47;;;9.95;58.29
44481;BME280;30184;42.018;23.670;2023-03-21T07:07:01;91277.88;;;10.03;58.17
44481;BME280;30184;42.018;23.670;2023-03-21T07:09:30;91280.59;;;10.03;58.49
44481;BME280;30184;42.018;23.670;2023-03-21T07:12:04;91285.38;;;9.99;57.60
44481;BME280;30184;42.018;23.670;2023-03-21T07:15:04;91278.09;;;10.08;57.85
44481;BME280;30184;42.018;23.670;2023-03-21T07:17:35;91287.53;;;10.17;57.25
44481;BME280;30184;42.018;23.670;2023-03-21T07:20:05;91173.75;;;9.37;57.50
44481;BME280;30184;42.018;23.670;2023-03-21T07:22:35;91283.44;;;10.25;56.82
44481;BME280;30184;42.018;23.670;2023-03-21T07:25:05;91277.47;;;10.30;56.35
44481;BME280;30184;42.018;23.670;2023-03-21T07:27:39;91268.38;;;10.36;56.45
44481;BME280;30184;42.018;23.670;2023-03-21T07:30:10;91277.38;;;10.46;56.18
44481;BME280;30184;42.018;23.670;2023-03-21T07:32:41;91267.06;;;10.54;55.91
44481;BME280;30184;42.018;23.670;2023-03-21T07:35:13;91268.25;;;10.65;55.46
44481;BME280;30184;42.018;23.670;2023-03-21T07:37:43;91271.34;;;10.76;54.92
44481;BME280;30184;42.018;23.670;2023-03-21T07:40:16;91261.25;;;10.90;54.43
44481;BME280;30184;42.018;23.670;2023-03-21T07:42:47;91254.88;;;11.05;53.56
44481;BME280;30184;42.018;23.670;2023-03-21T07:45:28;91276.19;;;11.07;52.79
44481;BME280;30184;42.018;23.670;2023-03-21T07:47:59;91245.19;;;11.17;52.53
44481;BME280;30184;42.018;23.670;2023-03-21T07:50:33;91253.88;;;11.46;51.83
44481;BME280;30184;42.018;23.670;2023-03-21T07:53:02;91261.72;;;11.66;51.58
44481;BME280;30184;42.018;23.670;2023-03-21T07:55:31;91173.38;;;11.18;51.58
44481;BME280;30184;42.018;23.670;2023-03-21T07:58:01;91273.28;;;12.01;50.94
44481;BME280;30184;42.018;23.670;2023-03-21T08:00:31;91269.13;;;12.18;50.73
44481;BME280;30184;42.018;23.670;2023-03-21T08:03:10;91271.31;;;12.32;50.15
44481;BME280;30184;42.018;23.670;2023-03-21T08:05:40;91250.97;;;12.46;50.20
44481;BME280;30184;42.018;23.670;2023-03-21T08:08:10;91270.81;;;12.65;49.18
44481;BME280;30184;42.018;23.670;2023-03-21T08:10:41;91272.06;;;12.73;48.78
44481;BME280;30184;42.018;23.670;2023-03-21T08:13:11;91259.53;;;12.85;49.77
44481;BME280;30184;42.018;23.670;2023-03-21T08:15:40;91058.06;;;11.41;49.38
44481;BME280;30184;42.018;23.670;2023-03-21T08:18:11;91257.50;;;13.25;46.91
44481;BME280;30184;42.018;23.670;2023-03-21T08:20:40;91251.31;;;13.43;46.93
44481;BME280;30184;42.018;23.670;2023-03-21T08:23:09;91215.56;;;13.50;46.66
44481;BME280;30184;42.018;23.670;2023-03-21T08:25:38;91239.16;;;13.90;45.89
44481;BME280;30184;42.018;23.670;2023-03-21T08:28:07;91256.25;;;13.99;44.75
44481;BME280;30184;42.018;23.670;2023-03-21T08:30:37;91244.56;;;14.08;44.14
44481;BME280;30184;42.018;23.670;2023-03-21T08:33:06;91238.47;;;14.13;44.82
44481;BME280;30184;42.018;23.670;2023-03-21T08:35:36;91187.00;;;13.97;44.36
44481;BME280;30184;42.018;23.670;2023-03-21T08:38:15;91242.66;;;14.32;44.50
44481;BME280;30184;42.018;23.670;2023-03-21T08:40:44;91233.25;;;14.42;44.30
44481;BME280;30184;42.018;23.670;2023-03-21T08:43:14;91237.00;;;14.54;43.62
44481;BME280;30184;42.018;23.670;2023-03-21T08:45:43;91231.16;;;14.70;43.07
44481;BME280;30184;42.018;23.670;2023-03-21T08:48:12;91228.97;;;14.83;42.81
44481;BME280;30184;42.018;23.670;2023-03-21T08:50:42;91168.63;;;14.48;42.65
44481;BME280;30184;42.018;23.670;2023-03-21T08:53:12;90954.94;;;13.11;42.59
44481;BME280;30184;42.018;23.670;2023-03-21T08:55:42;91214.78;;;14.94;43.14
44481;BME280;30184;42.018;23.670;2023-03-21T08:58:11;91153.75;;;14.49;43.07
44481;BME280;30184;42.018;23.670;2023-03-21T09:00:40;91214.97;;;14.90;43.44
44481;BME280;30184;42.018;23.670;2023-03-21T09:03:09;91225.16;;;14.90;42.91
44481;BME280;30184;42.018;23.670;2023-03-21T09:05:39;91205.31;;;15.04;42.70
44481;BME280;30184;42.018;23.670;2023-03-21T09:08:10;91205.53;;;15.15;42.86
44481;BME280;30184;42.018;23.670;2023-03-21T09:10:39;91201.63;;;15.31;42.34
44481;BME280;30184;42.018;23.670;2023-03-21T09:13:08;91151.53;;;15.10;41.61
44481;BME280;30184;42.018;23.670;2023-03-21T09:15:37;91195.22;;;15.73;41.25
44481;BME280;30184;42.018;23.670;2023-03-21T09:18:07;91187.13;;;16.08;40.70
44481;BME280;30184;42.018;23.670;2023-03-21T09:20:43;91145.50;;;16.18;40.26
44481;BME280;30184;42.018;23.670;2023-03-21T09:23:14;91181.13;;;16.68;38.78
44481;BME280;30184;42.018;23.670;2023-03-21T09:25:45;91173.00;;;16.94;38.39
44481;BME280;30184;42.018;23.670;2023-03-21T09:28:14;91169.84;;;17.01;37.42
44481;BME280;30184;42.018;23.670;2023-03-21T09:30:43;91165.88;;;17.02;37.71
44481;BME280;30184;42.018;23.670;2023-03-21T09:33:12;91160.88;;;17.00;37.43
44481;BME280;30184;42.018;23.670;2023-03-21T09:35:52;91160.03;;;16.94;36.58
44481;BME280;30184;42.018;23.670;2023-03-21T09:38:23;91151.72;;;16.89;36.76
44481;BME280;30184;42.018;23.670;2023-03-21T09:41:05;91155.03;;;16.93;36.35
44481;BME280;30184;42.018;23.670;2023-03-21T09:43:43;91160.66;;;16.84;36.42
44481;BME280;30184;42.018;23.670;2023-03-21T09:46:21;91146.19;;;16.83;36.14
44481;BME280;30184;42.018;23.670;2023-03-21T09:48:56;91127.06;;;16.68;36.60
44481;BME280;30184;42.018;23.670;2023-03-21T09:51:31;91147.22;;;16.86;34.86
44481;BME280;30184;42.018;23.670;2023-03-21T09:54:07;91148.88;;;16.98;35.03
44481;BME280;30184;42.018;23.670;2023-03-21T09:56:41;91109.06;;;16.82;35.96
44481;BME280;30184;42.018;23.670;2023-03-21T09:59:20;91141.72;;;17.06;34.40
44481;BME280;30184;42.018;23.670;2023-03-21T10:01:51;91144.63;;;17.17;34.76
44481;BME280;30184;42.018;23.670;2023-03-21T10:04:21;91142.97;;;17.25;33.98
44481;BME280;30184;42.018;23.670;2023-03-21T10:06:55;91146.69;;;17.22;33.93
44481;BME280;30184;42.018;23.670;2023-03-21T10:09:27;91138.84;;;17.35;34.59
44481;BME280;30184;42.018;23.670;2023-03-21T10:12:02;91105.34;;;17.05;34.79
44481;BME280;30184;42.018;23.670;2023-03-21T10:14:36;91156.47;;;17.29;35.33
44481;BME280;30184;42.018;23.670;2023-03-21T10:17:17;91125.91;;;17.15;36.24
44481;BME280;30184;42.018;23.670;2023-03-21T10:19:55;91106.66;;;17.10;36.30
44481;BME280;30184;42.018;23.670;2023-03-21T10:22:24;91126.09;;;17.32;35.40
44481;BME280;30184;42.018;23.670;2023-03-21T10:24:55;91122.84;;;17.34;35.22
44481;BME280;30184;42.018;23.670;2023-03-21T10:27:24;90893.78;;;15.68;36.02
44481;BME280;30184;42.018;23.670;2023-03-21T10:29:53;91131.69;;;17.43;36.11
44481;BME280;30184;42.018;23.670;2023-03-21T10:32:24;91126.09;;;17.32;36.88
44481;BME280;30184;42.018;23.670;2023-03-21T10:34:54;91129.94;;;17.40;37.36
44481;BME280;30184;42.018;23.670;2023-03-21T10:37:25;91116.63;;;17.33;37.46
44481;BME280;30184;42.018;23.670;2023-03-21T10:39:56;91149.47;;;17.48;36.58
44481;BME280;30184;42.018;23.670;2023-03-21T10:42:28;91094.97;;;17.35;36.63
44481;BME280;30184;42.018;23.670;2023-03-21T10:44:59;91106.50;;;17.65;36.54
44481;BME280;30184;42.018;23.670;2023-03-21T10:47:30;91110.41;;;17.79;36.30
44481;BME280;30184;42.018;23.670;2023-03-21T10:50:01;91087.50;;;17.87;36.88
44481;BME280;30184;42.018;23.670;2023-03-21T10:52:37;91093.06;;;17.99;36.36
44481;BME280;30184;42.018;23.670;2023-03-21T10:55:19;91076.69;;;18.10;35.36
44481;BME280;30184;42.018;23.670;2023-03-21T10:57:54;91060.78;;;18.19;34.96
44481;BME280;30184;42.018;23.670;2023-03-21T11:00:27;91076.78;;;18.26;34.77
44481;BME280;30184;42.018;23.670;2023-03-21T11:02:58;91072.13;;;18.33;34.09
44481;BME280;30184;42.018;23.670;2023-03-21T11:05:34;91092.09;;;18.33;33.65
44481;BME280;30184;42.018;23.670;2023-03-21T11:08:05;91038.69;;;18.03;33.37
44481;BME280;30184;42.018;23.670;2023-03-21T11:10:50;91074.56;;;18.25;32.50
44481;BME280;30184;42.018;23.670;2023-03-21T11:13:23;91079.03;;;18.22;33.03
44481;BME280;30184;42.018;23.670;2023-03-21T11:15:55;91072.13;;;18.38;33.02
44481;BME280;30184;42.018;23.670;2023-03-21T11:18:28;91080.44;;;18.44;32.78
44481;BME280;30184;42.018;23.670;2023-03-21T11:21:04;91074.41;;;18.40;33.09
44481;BME280;30184;42.018;23.670;2023-03-21T11:23:37;91075.38;;;18.37;33.70
44481;BME280;30184;42.018;23.670;2023-03-21T11:26:18;91079.81;;;18.28;34.39
44481;BME280;30184;42.018;23.670;2023-03-21T11:28:51;91050.16;;;18.01;33.53
44481;BME280;30184;42.018;23.670;2023-03-21T11:31:21;91072.00;;;18.16;32.58
44481;BME280;30184;42.018;23.670;2023-03-21T11:33:53;91058.97;;;18.11;32.97
44481;BME280;30184;42.018;23.670;2023-03-21T11:36:26;91064.25;;;18.14;33.26
44481;BME280;30184;42.018;23.670;2023-03-21T11:39:12;91065.50;;;18.13;33.43
44481;BME280;30184;42.018;23.670;2023-03-21T11:41:46;91062.25;;;18.15;32.95
44481;BME280;30184;42.018;23.670;2023-03-21T11:44:40;91041.56;;;18.19;33.47
44481;BME280;30184;42.018;23.670;2023-03-21T11:47:11;91086.53;;;18.27;32.34
44481;BME280;30184;42.018;23.670;2023-03-21T11:49:40;91046.19;;;18.39;32.47
44481;BME280;30184;42.018;23.670;2023-03-21T11:52:19;91053.44;;;18.42;33.15
44481;BME280;30184;42.018;23.670;2023-03-21T11:55:02;91030.06;;;18.58;32.90
44481;BME280;30184;42.018;23.670;2023-03-21T11:57:40;91032.78;;;18.52;32.76
44481;BME280;30184;42.018;23.670;2023-03-21T12:00:15;91031.78;;;18.55;33.52
44481;BME280;30184;42.018;23.670;2023-03-21T12:05:42;91052.22;;;18.49;32.39
44481;BME280;30184;42.018;23.670;2023-03-21T12:08:24;91023.03;;;18.51;32.32
44481;BME280;30184;42.018;23.670;2023-03-21T12:11:04;91015.47;;;18.41;32.91
44481;BME280;30184;42.018;23.670;2023-03-21T12:13:46;91003.72;;;18.35;32.73
44481;BME280;30184;42.018;23.670;2023-03-21T12:16:27;90976.13;;;18.12;33.40
44481;BME280;30184;42.018;23.670;2023-03-21T12:19:14;91003.84;;;18.57;33.10
44481;BME280;30184;42.018;23.670;2023-03-21T12:21:53;91014.53;;;18.55;33.34
44481;BME280;30184;42.018;23.670;2023-03-21T12:24:30;91010.00;;;18.46;32.94
44481;BME280;30184;42.018;23.670;2023-03-21T12:27:05;91043.66;;;18.36;32.90
44481;BME280;30184;42.018;23.670;2023-03-21T12:29:52;91027.78;;;18.56;32.67
44481;BME280;30184;42.018;23.670;2023-03-21T12:32:43;91008.47;;;18.40;32.04
44481;BME280;30184;42.018;23.670;2023-03-21T12:35:30;91013.44;;;18.36;32.41
44481;BME280;30184;42.018;23.670;2023-03-21T12:38:14;91010.84;;;18.15;32.76
44481;BME280;30184;42.018;23.670;2023-03-21T12:40:59;91005.53;;;18.06;33.08
44481;BME280;30184;42.018;23.670;2023-03-21T12:43:41;91013.91;;;17.92;32.92
44481;BME280;30184;42.018;23.670;2023-03-21T12:46:18;91006.03;;;17.73;32.81
44481;BME280;30184;42.018;23.670;2023-03-21T12:48:51;91021.00;;;17.72;33.13
44481;BME280;30184;42.018;23.670;2023-03-21T12:51:27;91015.16;;;17.59;33.47
44481;BME280;30184;42.018;23.670;2023-03-21T12:54:04;91011.66;;;17.59;33.26
44481;BME280;30184;42.018;23.670;2023-03-21T12:56:40;91014.50;;;17.44;32.96
44481;BME280;30184;42.018;23.670;2023-03-21T12:59:22;91014.44;;;17.33;32.00
44481;BME280;30184;42.018;23.670;2023-03-21T13:01:59;91009.34;;;17.26;31.69
44481;BME280;30184;42.018;23.670;2023-03-21T13:04:40;91002.59;;;17.21;31.53
44481;BME280;30184;42.018;23.670;2023-03-21T13:07:14;90996.47;;;17.32;31.72
44481;BME280;30184;42.018;23.670;2023-03-21T13:09:46;90998.19;;;17.29;32.29
44481;BME280;30184;42.018;23.670;2023-03-21T13:12:31;90967.69;;;17.22;31.72
44481;BME280;30184;42.018;23.670;2023-03-21T13:15:13;90984.91;;;17.53;30.63
44481;BME280;30184;42.018;23.670;2023-03-21T13:17:58;90979.81;;;17.67;30.54
44481;BME280;30184;42.018;23.670;2023-03-21T13:20:35;90977.34;;;17.69;29.78
44481;BME280;30184;42.018;23.670;2023-03-21T13:23:08;90937.38;;;17.31;29.97
44481;BME280;30184;42.018;23.670;2023-03-21T13:25:41;90937.00;;;17.17;30.11
44481;BME280;30184;42.018;23.670;2023-03-21T13:28:18;90934.66;;;16.79;29.90
44481;BME280;30184;42.018;23.670;2023-03-21T13:30:49;90956.16;;;17.43;29.58
44481;BME280;30184;42.018;23.670;2023-03-21T13:33:28;90952.41;;;17.41;28.93
44481;BME280;30184;42.018;23.670;2023-03-21T13:36:04;90956.84;;;17.33;28.38
44481;BME280;30184;42.018;23.670;2023-03-21T13:38:35;90900.28;;;17.04;28.48
44481;BME280;30184;42.018;23.670;2023-03-21T13:41:10;90929.59;;;17.24;27.83